createdAt,value
2018-07-06T00:02:26.449Z,6.12
2018-07-06T00:05:06.256Z,5.50
2018-07-06T00:07:46.147Z,5.50
2018-07-06T00:10:26.056Z,5.05
2018-07-06T00:13:05.945Z,5.83
2018-07-06T00:15:45.879Z,5.65
2018-07-06T00:18:25.692Z,5.60
2018-07-06T00:21:05.468Z,5.53
2018-07-06T00:23:45.234Z,5.78
2018-07-06T00:26:24.942Z,6.70
2018-07-06T00:29:04.679Z,4.87
2018-07-06T00:31:44.379Z,5.10
2018-07-06T00:34:24.729Z,6.00
2018-07-06T00:37:04.510Z,6.17
2018-07-06T00:39:44.427Z,6.35
2018-07-06T00:42:24.212Z,5.75
2018-07-06T00:45:04.085Z,6.53
2018-07-06T00:47:44.017Z,5.70
2018-07-06T00:50:23.887Z,6.50
2018-07-06T00:53:03.766Z,5.60
2018-07-06T00:55:43.637Z,6.42
2018-07-06T00:58:23.880Z,5.22
2018-07-06T01:01:04.061Z,5.78
2018-07-06T01:03:43.945Z,6.12
2018-07-06T01:06:23.758Z,4.87
2018-07-06T01:09:03.721Z,5.45
2018-07-06T01:11:43.479Z,5.65
2018-07-06T01:14:23.242Z,5.60
2018-07-06T01:17:03.157Z,6.30
2018-07-06T01:19:43.033Z,5.00
2018-07-06T01:22:22.965Z,5.40
2018-07-06T01:25:03.037Z,5.08
2018-07-06T01:27:42.896Z,5.08
2018-07-06T01:30:23.003Z,4.72
2018-07-06T01:33:02.782Z,5.35
2018-07-06T01:35:42.580Z,5.62
2018-07-06T01:38:22.386Z,5.15
2018-07-06T01:41:02.178Z,4.87
2018-07-06T01:43:42.028Z,4.72
2018-07-06T01:46:21.913Z,5.08
2018-07-06T01:49:01.781Z,5.20
2018-07-06T01:51:42.200Z,4.83
2018-07-06T01:54:21.957Z,4.62
2018-07-06T01:57:01.880Z,4.70
2018-07-06T01:59:41.768Z,4.72
2018-07-06T02:02:21.812Z,4.60
2018-07-06T02:05:01.696Z,4.80
2018-07-06T02:07:41.574Z,4.70
2018-07-06T02:10:21.489Z,4.15
2018-07-06T02:13:01.363Z,4.65
2018-07-06T02:15:41.189Z,4.67
2018-07-06T02:18:21.004Z,4.25
2018-07-06T02:21:00.885Z,4.15
2018-07-06T02:23:40.590Z,4.20
2018-07-06T02:26:20.413Z,4.22
2018-07-06T02:29:00.306Z,3.77
2018-07-06T02:31:40.167Z,4.60
2018-07-06T02:34:20.560Z,4.00
2018-07-06T02:37:00.437Z,4.50
2018-07-06T02:39:40.198Z,4.10
2018-07-06T02:42:20.006Z,4.67
2018-07-06T02:44:59.809Z,4.30
2018-07-06T02:47:39.794Z,4.00
2018-07-06T02:50:19.691Z,4.60
2018-07-06T02:52:59.498Z,4.30
2018-07-06T02:55:42.320Z,4.00
2018-07-06T02:58:22.745Z,3.80
2018-07-06T03:01:02.825Z,4.22
2018-07-06T03:03:43.207Z,4.45
2018-07-06T03:06:23.206Z,3.75
2018-07-06T03:09:03.070Z,4.10
2018-07-06T03:11:42.887Z,3.50
2018-07-06T03:14:22.639Z,3.65
2018-07-06T03:17:02.587Z,4.00
2018-07-06T03:19:42.382Z,3.92
2018-07-06T03:22:22.205Z,3.87
2018-07-06T03:25:02.522Z,4.15
2018-07-06T03:27:42.420Z,3.58
2018-07-06T03:30:22.230Z,3.50
2018-07-06T03:33:01.974Z,3.20
2018-07-06T03:35:41.902Z,3.80
2018-07-06T03:38:21.705Z,3.80
2018-07-06T03:41:01.522Z,3.62
2018-07-06T03:43:41.396Z,3.05
2018-07-06T03:46:21.188Z,4.10
2018-07-06T03:49:01.082Z,3.75
2018-07-06T03:51:40.825Z,3.92
2018-07-06T03:54:20.626Z,3.83
2018-07-06T03:57:00.305Z,3.77
2018-07-06T03:59:40.240Z,4.00
2018-07-06T04:02:20.130Z,3.35
2018-07-06T04:04:59.979Z,3.70
2018-07-06T04:07:40.139Z,4.75
2018-07-06T04:10:19.949Z,4.10
2018-07-06T04:12:59.846Z,3.60
2018-07-06T04:15:39.734Z,4.10
2018-07-06T04:18:19.550Z,3.70
2018-07-06T04:20:59.331Z,4.00
2018-07-06T04:23:39.147Z,4.65
2018-07-06T04:26:19.040Z,4.17
2018-07-06T04:28:58.826Z,4.15
2018-07-06T04:31:38.635Z,4.42
2018-07-06T04:34:18.447Z,4.67
2018-07-06T04:36:58.212Z,4.42
2018-07-06T04:39:38.133Z,4.20
2018-07-06T04:42:18.449Z,4.33
2018-07-06T04:44:58.269Z,4.78
2018-07-06T04:47:38.063Z,4.08
2018-07-06T04:50:17.808Z,4.33
2018-07-06T04:52:57.630Z,4.30
2018-07-06T04:55:37.390Z,4.10
2018-07-06T04:58:17.116Z,3.83
2018-07-06T05:00:56.908Z,3.70
2018-07-06T05:03:36.769Z,4.03
2018-07-06T05:06:16.585Z,4.37
2018-07-06T05:08:56.362Z,3.55
2018-07-06T05:11:36.165Z,3.52
2018-07-06T05:14:16.105Z,3.35
2018-07-06T05:16:56.456Z,3.58
2018-07-06T05:19:36.382Z,3.87
2018-07-06T05:22:16.129Z,3.20
2018-07-06T05:24:55.833Z,3.80
2018-07-06T05:27:35.639Z,2.72
2018-07-06T05:30:15.832Z,3.52
2018-07-06T05:32:55.737Z,3.85
2018-07-06T05:35:35.551Z,2.80
2018-07-06T05:38:16.574Z,3.37
2018-07-06T05:40:56.486Z,2.87
2018-07-06T05:43:36.390Z,2.50
2018-07-06T05:46:16.418Z,3.20
2018-07-06T05:48:56.333Z,2.72
2018-07-06T05:51:36.265Z,2.77
2018-07-06T05:54:16.725Z,2.60
2018-07-06T05:56:56.637Z,3.00
2018-07-06T05:59:36.552Z,3.35
2018-07-06T06:02:16.325Z,3.22
2018-07-06T06:04:56.072Z,3.25
2018-07-06T06:07:25.288Z,4.03
2018-07-06T06:09:54.116Z,3.50
2018-07-06T06:12:22.624Z,3.62
2018-07-06T06:14:51.926Z,3.92
2018-07-06T06:17:21.339Z,3.45
2018-07-06T06:19:50.216Z,3.95
2018-07-06T06:22:19.345Z,3.45
2018-07-06T06:24:48.177Z,3.33
2018-07-06T06:27:16.820Z,3.95
2018-07-06T06:29:45.312Z,3.72
2018-07-06T06:32:13.797Z,4.47
2018-07-06T06:34:42.311Z,4.50
2018-07-06T06:37:10.782Z,5.25
2018-07-06T06:39:39.292Z,5.85
2018-07-06T06:42:07.781Z,6.22
2018-07-06T06:44:36.287Z,5.87
2018-07-06T06:47:04.777Z,5.62
2018-07-06T06:49:33.257Z,6.25
2018-07-06T06:52:01.749Z,5.92
2018-07-06T06:54:30.424Z,4.60
2018-07-06T06:56:58.977Z,5.17
2018-07-06T06:59:27.493Z,5.67
2018-07-06T07:01:55.998Z,5.95
2018-07-06T07:04:24.805Z,6.05
2018-07-06T07:06:53.373Z,6.22
2018-07-06T07:09:22.444Z,5.20
2018-07-06T07:11:51.270Z,5.65
2018-07-06T07:14:19.770Z,5.92
2018-07-06T07:16:48.595Z,6.15
2018-07-06T07:19:17.097Z,5.72
2018-07-06T07:21:46.650Z,5.97
2018-07-06T07:24:15.945Z,6.95
2018-07-06T07:26:44.465Z,5.62
2018-07-06T07:29:12.970Z,6.10
2018-07-06T07:31:41.532Z,7.15
2018-07-06T07:34:10.005Z,6.87
2018-07-06T07:36:38.818Z,6.22
2018-07-06T07:39:07.304Z,5.90
2018-07-06T07:41:35.800Z,6.10
2018-07-06T07:44:04.608Z,5.83
2018-07-06T07:46:33.108Z,5.58
2018-07-06T07:49:01.810Z,5.10
2018-07-06T07:52:11.485Z,4.28
2018-07-06T07:54:46.720Z,4.25
2018-07-06T07:57:15.636Z,4.25
2018-07-06T07:59:44.864Z,4.33
2018-07-06T08:02:13.653Z,4.62
2018-07-06T08:04:42.596Z,4.78
2018-07-06T08:07:12.226Z,4.08
2018-07-06T08:09:40.717Z,4.35
2018-07-06T08:12:09.889Z,4.40
2018-07-06T08:14:38.573Z,4.25
2018-07-06T08:17:07.727Z,4.62
2018-07-06T08:19:36.873Z,4.67
2018-07-06T08:22:05.363Z,4.10
2018-07-06T08:24:33.878Z,3.95
2018-07-06T08:27:02.758Z,4.25
2018-07-06T08:29:31.245Z,4.37
2018-07-06T08:32:00.059Z,4.58
2018-07-06T08:34:39.915Z,4.47
2018-07-06T08:37:29.862Z,4.28
2018-07-06T08:39:59.163Z,4.60
2018-07-06T08:42:29.964Z,4.55
2018-07-06T08:44:59.776Z,5.45
2018-07-06T08:47:29.315Z,4.40
2018-07-06T08:49:58.852Z,6.87
2018-07-06T08:52:27.849Z,8.23
2018-07-06T08:54:56.325Z,7.47
2018-07-06T08:57:26.592Z,6.80
2018-07-06T08:59:55.574Z,5.53
2018-07-06T09:02:24.795Z,5.92
2018-07-06T09:04:54.529Z,5.17
2018-07-06T09:07:23.654Z,4.65
2018-07-06T09:09:53.208Z,4.47
2018-07-06T09:12:21.704Z,4.58
2018-07-06T09:14:50.516Z,4.22
2018-07-06T09:17:20.134Z,3.98
2018-07-06T09:19:49.520Z,4.05
2018-07-06T09:22:18.437Z,3.55
2018-07-06T09:24:47.933Z,3.83
2018-07-06T09:27:17.087Z,3.40
2018-07-06T09:29:45.582Z,3.60
2018-07-06T09:32:14.089Z,3.33
2018-07-06T09:34:43.581Z,4.28
2018-07-06T09:37:12.271Z,3.67
2018-07-06T09:39:42.749Z,3.98
2018-07-06T09:42:11.692Z,3.95
2018-07-06T09:44:40.889Z,3.47
2018-07-06T09:47:09.709Z,4.53
2018-07-06T09:49:38.209Z,3.70
2018-07-06T09:52:06.707Z,4.00
2018-07-06T09:54:35.520Z,3.42
2018-07-06T09:57:04.392Z,4.10
2018-07-06T09:59:32.900Z,3.80
2018-07-06T10:02:01.749Z,4.30
2018-07-06T10:04:41.334Z,3.70
2018-07-06T10:07:12.012Z,3.02
2018-07-06T10:09:40.851Z,3.20
2018-07-06T10:12:09.700Z,3.80
2018-07-06T10:14:38.192Z,3.83
2018-07-06T10:17:07.382Z,3.55
2018-07-06T10:19:36.278Z,4.08
2018-07-06T10:22:05.399Z,4.12
2018-07-06T10:24:34.263Z,3.77
2018-07-06T10:27:03.145Z,2.90
2018-07-06T10:29:43.709Z,3.62
2018-07-06T10:32:18.725Z,3.20
2018-07-06T10:34:47.253Z,3.72
2018-07-06T10:37:16.713Z,3.12
2018-07-06T10:39:45.405Z,3.05
2018-07-06T10:42:14.446Z,3.08
2018-07-06T10:44:43.503Z,2.90
2018-07-06T10:47:12.529Z,2.95
2018-07-06T10:49:41.691Z,3.02
2018-07-06T10:52:11.122Z,3.02
2018-07-06T10:54:40.525Z,3.00
2018-07-06T10:57:09.721Z,2.90
2018-07-06T10:59:37.985Z,3.50
2018-07-06T11:02:06.297Z,3.90
2018-07-06T11:04:35.268Z,3.75
2018-07-06T11:07:03.743Z,3.55
2018-07-06T11:09:32.605Z,4.20
2018-07-06T11:12:01.189Z,2.80
2018-07-06T11:14:29.761Z,3.23
2018-07-06T11:16:58.289Z,3.50
2018-07-06T11:19:27.467Z,3.52
2018-07-06T11:21:56.018Z,4.00
2018-07-06T11:24:24.623Z,3.50
2018-07-06T11:26:53.165Z,3.37
2018-07-06T11:29:22.032Z,3.30
2018-07-06T11:31:50.268Z,4.00
2018-07-06T11:34:18.993Z,3.93
2018-07-06T11:36:48.045Z,3.63
2018-07-06T11:39:16.634Z,3.30
2018-07-06T11:41:45.221Z,3.73
2018-07-06T11:44:13.772Z,3.57
2018-07-06T11:46:42.353Z,2.60
2018-07-06T11:49:11.300Z,2.93
2018-07-06T11:51:39.873Z,3.00
2018-07-06T11:54:08.896Z,2.73
2018-07-06T11:56:37.474Z,3.00
2018-07-06T11:59:06.130Z,3.37
2018-07-06T12:01:35.372Z,3.13
2018-07-06T12:04:03.690Z,3.00
2018-07-06T12:06:32.423Z,2.50
2018-07-06T12:09:01.428Z,3.10
2018-07-06T12:11:30.357Z,3.67
2018-07-06T12:13:59.906Z,2.77
2018-07-06T12:16:28.340Z,2.73
2018-07-06T12:18:56.943Z,3.00
2018-07-06T12:21:26.204Z,3.40
2018-07-06T12:23:55.213Z,2.70
2018-07-06T12:26:24.765Z,3.10
2018-07-06T12:28:52.998Z,3.60
2018-07-06T12:31:22.592Z,3.33
2018-07-06T12:33:52.130Z,2.93
2018-07-06T12:36:20.367Z,3.10
2018-07-06T12:38:49.370Z,4.10
2018-07-06T12:41:18.265Z,3.85
2018-07-06T12:43:47.301Z,3.17
2018-07-06T12:46:15.537Z,3.60
2018-07-06T12:48:44.204Z,3.77
2018-07-06T12:51:12.575Z,3.10
2018-07-06T12:53:40.825Z,3.60
2018-07-06T12:56:09.477Z,3.37
2018-07-06T12:58:38.587Z,3.23
2018-07-06T13:01:06.950Z,3.40
2018-07-06T13:03:35.813Z,3.02
2018-07-06T13:06:04.378Z,3.47
2018-07-06T13:08:32.938Z,2.77
2018-07-06T13:11:01.162Z,3.40
2018-07-06T13:13:29.914Z,3.60
2018-07-06T13:15:59.015Z,3.83
2018-07-06T13:18:27.954Z,3.50
2018-07-06T13:20:57.458Z,3.53
2018-07-06T13:23:26.756Z,4.40
2018-07-06T13:25:55.264Z,4.80
2018-07-06T13:28:24.158Z,4.60
2018-07-06T13:30:52.838Z,4.13
2018-07-06T13:33:21.317Z,4.30
2018-07-06T13:35:50.150Z,4.12
2018-07-06T13:38:19.634Z,4.45
2018-07-06T13:40:48.578Z,4.90
2018-07-06T13:43:17.387Z,4.67
2018-07-06T13:45:46.542Z,5.00
2018-07-06T13:48:15.373Z,5.03
2018-07-06T13:50:45.668Z,5.10
2018-07-06T13:53:14.645Z,5.28
2018-07-06T13:55:43.142Z,6.22
2018-07-06T13:58:11.658Z,6.60
2018-07-06T14:00:40.852Z,5.87
2018-07-06T14:03:11.010Z,6.73
2018-07-06T14:05:40.222Z,6.05
2018-07-06T14:08:11.306Z,5.75
2018-07-06T14:10:40.237Z,5.47
2018-07-06T14:13:09.097Z,4.95
2018-07-06T14:15:38.289Z,6.42
2018-07-06T14:18:08.146Z,5.90
2018-07-06T14:20:37.673Z,5.08
2018-07-06T14:23:06.498Z,5.03
2018-07-06T14:25:35.321Z,4.87
2018-07-06T14:28:04.168Z,5.25
2018-07-06T14:30:32.549Z,5.03
2018-07-06T14:33:02.090Z,4.83
2018-07-06T14:35:31.230Z,5.40
2018-07-06T14:38:00.048Z,4.70
2018-07-06T14:40:28.569Z,5.15
2018-07-06T14:42:58.077Z,6.40
2018-07-06T14:45:26.313Z,6.80
2018-07-06T14:47:56.062Z,5.77
2018-07-06T14:50:24.361Z,4.63
2018-07-06T14:52:53.637Z,4.20
2018-07-06T14:55:22.341Z,4.27
2018-07-06T14:57:51.310Z,4.37
2018-07-06T15:00:20.499Z,4.03
2018-07-06T15:02:49.165Z,3.97
2018-07-06T15:05:18.452Z,4.23
2018-07-06T15:07:48.012Z,3.50
2018-07-06T15:10:17.157Z,4.43
2018-07-06T15:12:45.498Z,4.30
2018-07-06T15:15:13.877Z,4.30
2018-07-06T15:17:42.127Z,4.03
2018-07-06T15:20:10.438Z,4.60
2018-07-06T15:22:39.529Z,4.62
2018-07-06T15:25:08.077Z,5.17
2018-07-06T15:27:36.691Z,5.20
2018-07-06T15:30:05.239Z,5.00
2018-07-06T15:32:34.071Z,5.83
2018-07-06T15:35:02.335Z,6.23
2018-07-06T15:37:30.831Z,5.95
2018-07-06T15:39:59.423Z,5.83
2018-07-06T15:42:28.826Z,4.90
2018-07-06T15:44:57.637Z,5.92
2018-07-06T15:47:27.310Z,5.47
2018-07-06T15:49:56.166Z,5.95
2018-07-06T15:52:25.342Z,4.83
2018-07-06T15:54:54.645Z,5.60
2018-07-06T15:57:22.930Z,5.83
2018-07-06T15:59:51.503Z,6.57
2018-07-06T16:02:21.094Z,5.92
2018-07-06T16:04:50.306Z,5.80
2018-07-06T16:07:19.389Z,5.80
2018-07-06T16:09:51.090Z,5.40
2018-07-06T16:12:20.322Z,5.13
2018-07-06T16:14:49.182Z,5.60
2018-07-06T16:17:18.352Z,6.03
2018-07-06T16:19:46.905Z,5.50
2018-07-06T16:22:15.218Z,7.13
2018-07-06T16:24:44.401Z,6.67
2018-07-06T16:27:13.565Z,6.30
2018-07-06T16:29:45.568Z,6.17
2018-07-06T16:32:14.061Z,6.65
2018-07-06T16:34:42.589Z,6.00
2018-07-06T16:37:11.669Z,5.73
2018-07-06T16:39:40.847Z,6.12
2018-07-06T16:42:09.444Z,5.60
2018-07-06T16:44:37.694Z,5.27
2018-07-06T16:47:06.186Z,5.05
2018-07-06T16:49:35.005Z,5.47
2018-07-06T16:52:04.194Z,5.05
2018-07-06T16:54:33.038Z,5.33
2018-07-06T16:57:01.850Z,5.70
2018-07-06T16:59:30.081Z,4.93
2018-07-06T17:01:58.326Z,5.27
2018-07-06T17:04:26.549Z,6.10
2018-07-06T17:06:55.149Z,5.20
2018-07-06T17:09:23.721Z,4.53
2018-07-06T17:11:53.234Z,4.87
2018-07-06T17:14:21.593Z,4.00
2018-07-06T17:16:51.198Z,4.12
2018-07-06T17:19:19.820Z,4.10
2018-07-06T17:21:48.857Z,4.40
2018-07-06T17:24:17.701Z,3.87
2018-07-06T17:26:46.712Z,3.42
2018-07-06T17:29:15.538Z,3.55
2018-07-06T17:31:44.130Z,3.72
2018-07-06T17:34:12.700Z,3.47
2018-07-06T17:36:40.989Z,3.20
2018-07-06T17:39:09.856Z,3.15
2018-07-06T17:41:39.210Z,3.07
2018-07-06T17:44:07.781Z,3.10
2018-07-06T17:46:36.333Z,3.20
2018-07-06T17:49:05.169Z,2.98
2018-07-06T17:51:33.721Z,2.62
2018-07-06T17:54:04.272Z,2.70
2018-07-06T17:56:33.131Z,3.20
2018-07-06T17:59:01.984Z,2.80
2018-07-06T18:01:31.137Z,2.90
2018-07-06T18:03:59.984Z,2.72
2018-07-06T18:06:29.303Z,2.92
2018-07-06T18:08:57.538Z,3.17
2018-07-06T18:11:26.464Z,3.23
2018-07-06T18:13:55.009Z,2.80
2018-07-06T18:16:24.480Z,3.12
2018-07-06T18:18:53.177Z,3.70
2018-07-06T18:21:21.694Z,2.67
2018-07-06T18:23:50.246Z,3.58
2018-07-06T18:26:19.066Z,2.75
2018-07-06T18:28:47.901Z,2.80
2018-07-06T18:31:16.413Z,2.92
2018-07-06T18:33:45.265Z,3.20
2018-07-06T18:36:13.742Z,3.10
2018-07-06T18:38:42.566Z,2.80
2018-07-06T18:41:11.429Z,2.30
2018-07-06T18:43:40.236Z,3.12
2018-07-06T18:46:08.737Z,3.20
2018-07-06T18:48:37.498Z,2.95
2018-07-06T18:51:06.866Z,2.80
2018-07-06T18:53:35.717Z,3.20
2018-07-06T18:56:04.626Z,2.30
2018-07-06T18:58:33.517Z,2.65
2018-07-06T19:01:02.363Z,2.77
2018-07-06T19:03:31.172Z,2.87
2018-07-06T19:06:00.024Z,3.00
2018-07-06T19:08:29.175Z,3.10
2018-07-06T19:10:58.057Z,2.70
2018-07-06T19:13:26.623Z,2.58
2018-07-06T19:15:55.477Z,3.40
2018-07-06T19:18:24.310Z,3.15
2018-07-06T19:20:53.194Z,3.00
2018-07-06T19:23:22.029Z,2.77
2018-07-06T19:25:51.488Z,2.95
2018-07-06T19:28:20.689Z,2.60
2018-07-06T19:30:49.609Z,3.02
2018-07-06T19:33:18.653Z,3.25
2018-07-06T19:35:47.178Z,3.58
2018-07-06T19:38:16.457Z,2.60
2018-07-06T19:40:45.532Z,3.47
2018-07-06T19:43:14.367Z,3.20
2018-07-06T19:45:43.586Z,3.00
2018-07-06T19:48:12.428Z,3.08
2018-07-06T19:50:40.981Z,2.80
2018-07-06T19:53:10.042Z,3.05
2018-07-06T19:55:38.948Z,2.50
2018-07-06T19:58:08.449Z,3.33
2018-07-06T20:00:37.270Z,3.25
2018-07-06T20:03:06.133Z,4.45
2018-07-06T20:05:35.895Z,2.90
2018-07-06T20:11:05.489Z,3.27
2018-07-06T20:13:34.377Z,3.05
2018-07-06T20:16:02.881Z,2.92
2018-07-06T20:18:32.203Z,3.20
2018-07-06T20:21:00.949Z,3.83
2018-07-06T20:23:30.330Z,3.83
2018-07-06T20:25:59.584Z,4.40
2018-07-06T20:28:28.478Z,4.28
2018-07-06T20:30:57.345Z,4.15
2018-07-06T20:33:26.200Z,5.05
2018-07-06T20:35:55.536Z,4.55
2018-07-06T20:38:25.009Z,4.30
2018-07-06T20:40:55.181Z,4.83
2018-07-06T20:43:23.721Z,4.90
2018-07-06T20:45:53.114Z,5.03
2018-07-06T20:48:21.593Z,4.80
2018-07-06T20:50:50.437Z,5.60
2018-07-06T20:53:19.181Z,5.17
2018-07-06T20:55:48.425Z,4.40
2018-07-06T20:58:16.991Z,5.00
2018-07-06T21:00:45.510Z,4.42
2018-07-06T21:03:14.363Z,4.53
2018-07-06T21:05:43.122Z,5.55
2018-07-06T21:08:11.915Z,4.10
2018-07-06T21:10:41.235Z,4.15
2018-07-06T21:13:10.214Z,5.05
2018-07-06T21:15:38.722Z,4.42
2018-07-06T21:18:07.277Z,4.40
2018-07-06T21:20:36.767Z,5.17
2018-07-06T21:23:07.031Z,4.22
2018-07-06T21:25:35.957Z,4.72
2018-07-06T21:28:04.517Z,4.67
2018-07-06T21:30:33.760Z,5.10
2018-07-06T21:33:03.751Z,4.75
2018-07-06T21:35:33.401Z,4.92
2018-07-06T21:38:01.906Z,4.45
2018-07-06T21:40:30.964Z,5.50
2018-07-06T21:43:01.759Z,4.35
2018-07-06T21:45:30.865Z,4.28
2018-07-06T21:47:59.961Z,5.08
2018-07-06T21:50:28.832Z,4.65
2018-07-06T21:52:59.389Z,4.40
2018-07-06T21:55:28.609Z,4.78
2018-07-06T21:57:57.444Z,5.03
2018-07-06T22:00:35.836Z,4.78
2018-07-06T22:03:04.363Z,4.40
2018-07-06T22:05:33.462Z,5.62
2018-07-06T22:08:02.958Z,4.78
2018-07-06T22:10:32.519Z,4.17
2018-07-06T22:13:00.985Z,4.55
2018-07-06T22:15:34.450Z,4.33
2018-07-06T22:18:03.330Z,4.40
2018-07-06T22:20:32.497Z,4.65
2018-07-06T22:23:01.310Z,4.60
2018-07-06T22:25:31.165Z,4.75
2018-07-06T22:28:00.029Z,5.10
2018-07-06T22:30:29.237Z,3.72
2018-07-06T22:32:58.097Z,4.90
2018-07-06T22:35:27.017Z,4.17
2018-07-06T22:37:56.218Z,4.50
2018-07-06T22:40:25.118Z,4.10
2018-07-06T22:42:54.509Z,4.30
2018-07-06T22:45:23.412Z,5.55
2018-07-06T22:47:52.809Z,4.65
2018-07-06T22:50:22.662Z,4.80
2018-07-06T22:52:51.530Z,4.90
2018-07-06T22:55:20.027Z,4.53
2018-07-06T22:57:49.777Z,4.45
2018-07-06T23:00:19.229Z,4.50
2018-07-06T23:02:47.733Z,3.85
2018-07-06T23:05:17.833Z,3.90
2018-07-06T23:07:46.464Z,4.05
2018-07-06T23:10:15.007Z,4.30
2018-07-06T23:12:43.829Z,3.47
2018-07-06T23:15:12.564Z,4.03
2018-07-06T23:17:41.835Z,4.25
2018-07-06T23:20:10.674Z,3.62
2018-07-06T23:23:16.434Z,3.90
2018-07-06T23:25:45.985Z,4.20
2018-07-06T23:28:16.495Z,3.62
2018-07-06T23:30:45.028Z,4.00
2018-07-06T23:33:13.877Z,4.20
2018-07-06T23:35:43.226Z,4.05
2018-07-06T23:38:13.223Z,4.12
2018-07-06T23:40:42.207Z,4.67
2018-07-06T23:43:11.025Z,4.60
2018-07-06T23:45:40.181Z,3.85
2018-07-06T23:48:08.706Z,3.60
2018-07-06T23:50:37.882Z,4.00
2018-07-06T23:53:07.606Z,3.83
2018-07-06T23:55:36.482Z,4.03
2018-07-06T23:58:05.190Z,3.40
